sensor_id;sensor_type;location;lat;lon;timestamp;P1;durP1;ratioP1;P2;durP2;ratioP2
67798;SDS011;54596;43.216;27.904;2023-10-13T00:01:56;18.92;;;8.30;;
67798;SDS011;54596;43.216;27.904;2023-10-13T00:04:27;20.08;;;7.53;;
67798;SDS011;54596;43.216;27.904;2023-10-13T00:06:54;19.30;;;7.18;;
67798;SDS011;54596;43.216;27.904;2023-10-13T00:09:25;16.67;;;6.90;;
67798;SDS011;54596;43.216;27.904;2023-10-13T00:11:54;16.00;;;6.50;;
67798;SDS011;54596;43.216;27.904;2023-10-13T00:14:21;18.05;;;6.95;;
67798;SDS011;54596;43.216;27.904;2023-10-13T00:16:47;20.42;;;7.72;;
67798;SDS011;54596;43.216;27.904;2023-10-13T00:19:29;19.25;;;7.90;;
67798;SDS011;54596;43.216;27.904;2023-10-13T00:22:03;18.35;;;8.52;;
67798;SDS011;54596;43.216;27.904;2023-10-13T00:24:34;23.50;;;8.87;;
67798;SDS011;54596;43.216;27.904;2023-10-13T00:27:13;19.52;;;8.48;;
67798;SDS011;54596;43.216;27.904;2023-10-13T00:29:58;20.52;;;8.30;;
67798;SDS011;54596;43.216;27.904;2023-10-13T00:32:47;17.20;;;7.20;;
67798;SDS011;54596;43.216;27.904;2023-10-13T00:35:30;17.42;;;7.25;;
67798;SDS011;54596;43.216;27.904;2023-10-13T00:38:05;15.18;;;6.50;;
67798;SDS011;54596;43.216;27.904;2023-10-13T00:40:42;15.00;;;6.55;;
67798;SDS011;54596;43.216;27.904;2023-10-13T00:43:20;14.77;;;5.60;;
67798;SDS011;54596;43.216;27.904;2023-10-13T00:51:07;15.02;;;5.80;;
67798;SDS011;54596;43.216;27.904;2023-10-13T00:53:43;15.40;;;5.95;;
67798;SDS011;54596;43.216;27.904;2023-10-13T00:56:10;16.20;;;6.18;;
67798;SDS011;54596;43.216;27.904;2023-10-13T00:58:48;15.35;;;5.82;;
67798;SDS011;54596;43.216;27.904;2023-10-13T01:01:18;16.08;;;6.40;;
67798;SDS011;54596;43.216;27.904;2023-10-13T01:03:51;14.90;;;6.00;;
67798;SDS011;54596;43.216;27.904;2023-10-13T01:06:21;15.13;;;6.53;;
67798;SDS011;54596;43.216;27.904;2023-10-13T01:09:03;19.35;;;6.32;;
67798;SDS011;54596;43.216;27.904;2023-10-13T01:11:38;17.10;;;6.82;;
67798;SDS011;54596;43.216;27.904;2023-10-13T01:14:05;15.23;;;6.35;;
67798;SDS011;54596;43.216;27.904;2023-10-13T01:16:30;22.02;;;7.30;;
67798;SDS011;54596;43.216;27.904;2023-10-13T01:18:57;13.38;;;6.30;;
67798;SDS011;54596;43.216;27.904;2023-10-13T01:21:25;16.17;;;6.50;;
67798;SDS011;54596;43.216;27.904;2023-10-13T01:23:55;18.55;;;6.82;;
67798;SDS011;54596;43.216;27.904;2023-10-13T01:26:20;15.85;;;7.18;;
67798;SDS011;54596;43.216;27.904;2023-10-13T01:28:48;18.65;;;7.32;;
67798;SDS011;54596;43.216;27.904;2023-10-13T01:31:14;15.98;;;6.97;;
67798;SDS011;54596;43.216;27.904;2023-10-13T01:33:50;16.08;;;7.18;;
67798;SDS011;54596;43.216;27.904;2023-10-13T01:36:19;17.42;;;6.40;;
67798;SDS011;54596;43.216;27.904;2023-10-13T01:38:46;16.95;;;6.47;;
67798;SDS011;54596;43.216;27.904;2023-10-13T01:41:12;14.20;;;6.03;;
67798;SDS011;54596;43.216;27.904;2023-10-13T01:43:39;13.02;;;5.85;;
67798;SDS011;54596;43.216;27.904;2023-10-13T01:46:04;13.93;;;6.10;;
67798;SDS011;54596;43.216;27.904;2023-10-13T01:48:30;15.52;;;5.80;;
67798;SDS011;54596;43.216;27.904;2023-10-13T01:50:57;13.00;;;5.75;;
67798;SDS011;54596;43.216;27.904;2023-10-13T01:53:25;14.73;;;5.57;;
67798;SDS011;54596;43.216;27.904;2023-10-13T01:55:54;15.02;;;5.32;;
67798;SDS011;54596;43.216;27.904;2023-10-13T01:58:22;15.07;;;5.70;;
67798;SDS011;54596;43.216;27.904;2023-10-13T02:00:48;12.90;;;4.80;;
67798;SDS011;54596;43.216;27.904;2023-10-13T02:03:14;13.80;;;4.97;;
67798;SDS011;54596;43.216;27.904;2023-10-13T02:05:41;12.93;;;5.55;;
67798;SDS011;54596;43.216;27.904;2023-10-13T02:10:47;14.43;;;5.90;;
67798;SDS011;54596;43.216;27.904;2023-10-13T02:13:14;15.95;;;5.63;;
67798;SDS011;54596;43.216;27.904;2023-10-13T02:15:41;16.10;;;5.50;;
67798;SDS011;54596;43.216;27.904;2023-10-13T02:18:12;11.75;;;5.28;;
67798;SDS011;54596;43.216;27.904;2023-10-13T02:20:40;13.32;;;5.32;;
67798;SDS011;54596;43.216;27.904;2023-10-13T02:23:11;12.82;;;5.13;;
67798;SDS011;54596;43.216;27.904;2023-10-13T02:25:37;15.35;;;6.15;;
67798;SDS011;54596;43.216;27.904;2023-10-13T02:28:11;15.15;;;6.75;;
67798;SDS011;54596;43.216;27.904;2023-10-13T02:30:41;12.60;;;5.35;;
67798;SDS011;54596;43.216;27.904;2023-10-13T02:33:13;14.65;;;5.45;;
67798;SDS011;54596;43.216;27.904;2023-10-13T02:35:39;13.73;;;4.82;;
67798;SDS011;54596;43.216;27.904;2023-10-13T02:38:15;10.82;;;4.43;;
67798;SDS011;54596;43.216;27.904;2023-10-13T02:40:51;11.90;;;4.85;;
67798;SDS011;54596;43.216;27.904;2023-10-13T02:43:16;13.32;;;4.93;;
67798;SDS011;54596;43.216;27.904;2023-10-13T02:45:42;13.50;;;5.63;;
67798;SDS011;54596;43.216;27.904;2023-10-13T02:48:22;16.23;;;6.07;;
67798;SDS011;54596;43.216;27.904;2023-10-13T02:50:54;16.00;;;5.30;;
67798;SDS011;54596;43.216;27.904;2023-10-13T02:53:26;14.43;;;6.05;;
67798;SDS011;54596;43.216;27.904;2023-10-13T02:55:54;12.80;;;6.00;;
67798;SDS011;54596;43.216;27.904;2023-10-13T02:58:31;15.45;;;6.32;;
67798;SDS011;54596;43.216;27.904;2023-10-13T03:01:06;13.07;;;6.20;;
67798;SDS011;54596;43.216;27.904;2023-10-13T03:03:48;12.50;;;6.00;;
67798;SDS011;54596;43.216;27.904;2023-10-13T03:06:17;17.23;;;6.35;;
67798;SDS011;54596;43.216;27.904;2023-10-13T03:08:46;14.85;;;6.20;;
67798;SDS011;54596;43.216;27.904;2023-10-13T03:11:12;15.60;;;6.70;;
67798;SDS011;54596;43.216;27.904;2023-10-13T03:13:39;16.23;;;7.72;;
67798;SDS011;54596;43.216;27.904;2023-10-13T03:16:15;18.70;;;7.45;;
67798;SDS011;54596;43.216;27.904;2023-10-13T03:18:47;19.13;;;7.45;;
67798;SDS011;54596;43.216;27.904;2023-10-13T03:21:20;16.50;;;7.40;;
67798;SDS011;54596;43.216;27.904;2023-10-13T03:23:59;14.82;;;7.63;;
67798;SDS011;54596;43.216;27.904;2023-10-13T03:26:38;17.30;;;8.52;;
67798;SDS011;54596;43.216;27.904;2023-10-13T03:29:09;17.77;;;7.72;;
67798;SDS011;54596;43.216;27.904;2023-10-13T03:31:39;16.50;;;8.70;;
67798;SDS011;54596;43.216;27.904;2023-10-13T03:34:05;24.02;;;8.40;;
67798;SDS011;54596;43.216;27.904;2023-10-13T03:36:35;18.17;;;8.43;;
67798;SDS011;54596;43.216;27.904;2023-10-13T03:39:19;16.83;;;8.10;;
67798;SDS011;54596;43.216;27.904;2023-10-13T03:41:48;20.33;;;7.57;;
67798;SDS011;54596;43.216;27.904;2023-10-13T03:44:18;18.38;;;7.80;;
67798;SDS011;54596;43.216;27.904;2023-10-13T03:46:44;16.35;;;8.15;;
67798;SDS011;54596;43.216;27.904;2023-10-13T03:49:13;17.50;;;9.13;;
67798;SDS011;54596;43.216;27.904;2023-10-13T03:51:49;17.92;;;10.73;;
67798;SDS011;54596;43.216;27.904;2023-10-13T03:54:15;19.75;;;11.57;;
67798;SDS011;54596;43.216;27.904;2023-10-13T03:56:42;21.40;;;12.57;;
67798;SDS011;54596;43.216;27.904;2023-10-13T03:59:09;24.80;;;14.02;;
67798;SDS011;54596;43.216;27.904;2023-10-13T04:01:49;25.67;;;15.73;;
67798;SDS011;54596;43.216;27.904;2023-10-13T04:04:24;34.47;;;19.13;;
67798;SDS011;54596;43.216;27.904;2023-10-13T04:07:02;36.35;;;21.13;;
67798;SDS011;54596;43.216;27.904;2023-10-13T04:09:37;47.42;;;25.15;;
67798;SDS011;54596;43.216;27.904;2023-10-13T04:12:12;46.47;;;26.02;;
67798;SDS011;54596;43.216;27.904;2023-10-13T04:14:39;48.90;;;27.65;;
67798;SDS011;54596;43.216;27.904;2023-10-13T04:17:25;39.15;;;24.73;;
67798;SDS011;54596;43.216;27.904;2023-10-13T04:19:53;39.85;;;26.30;;
67798;SDS011;54596;43.216;27.904;2023-10-13T04:22:41;47.35;;;28.65;;
67798;SDS011;54596;43.216;27.904;2023-10-13T04:25:18;47.85;;;30.42;;
67798;SDS011;54596;43.216;27.904;2023-10-13T04:28:10;47.00;;;30.35;;
67798;SDS011;54596;43.216;27.904;2023-10-13T04:33:23;43.53;;;26.90;;
67798;SDS011;54596;43.216;27.904;2023-10-13T04:36:06;43.45;;;26.52;;
67798;SDS011;54596;43.216;27.904;2023-10-13T04:41:26;35.28;;;19.40;;
67798;SDS011;54596;43.216;27.904;2023-10-13T04:46:50;32.08;;;16.60;;
67798;SDS011;54596;43.216;27.904;2023-10-13T04:49:18;35.67;;;16.52;;
67798;SDS011;54596;43.216;27.904;2023-10-13T04:51:56;30.95;;;15.93;;
67798;SDS011;54596;43.216;27.904;2023-10-13T04:54:25;28.50;;;15.55;;
67798;SDS011;54596;43.216;27.904;2023-10-13T04:56:51;37.42;;;16.20;;
67798;SDS011;54596;43.216;27.904;2023-10-13T04:59:36;36.13;;;19.52;;
67798;SDS011;54596;43.216;27.904;2023-10-13T05:02:02;45.88;;;26.15;;
67798;SDS011;54596;43.216;27.904;2023-10-13T05:04:47;53.08;;;36.95;;
67798;SDS011;54596;43.216;27.904;2023-10-13T05:07:31;87.43;;;50.97;;
67798;SDS011;54596;43.216;27.904;2023-10-13T05:10:18;85.32;;;58.88;;
67798;SDS011;54596;43.216;27.904;2023-10-13T05:13:02;100.88;;;73.63;;
67798;SDS011;54596;43.216;27.904;2023-10-13T05:15:47;115.88;;;87.05;;
67798;SDS011;54596;43.216;27.904;2023-10-13T05:18:32;126.93;;;90.53;;
67798;SDS011;54596;43.216;27.904;2023-10-13T05:21:16;120.43;;;93.82;;
67798;SDS011;54596;43.216;27.904;2023-10-13T05:24:01;120.80;;;92.43;;
67798;SDS011;54596;43.216;27.904;2023-10-13T05:26:48;110.13;;;83.78;;
67798;SDS011;54596;43.216;27.904;2023-10-13T05:29:33;103.80;;;78.07;;
67798;SDS011;54596;43.216;27.904;2023-10-13T05:32:17;122.10;;;80.30;;
67798;SDS011;54596;43.216;27.904;2023-10-13T05:35:01;99.70;;;73.90;;
67798;SDS011;54596;43.216;27.904;2023-10-13T05:37:45;103.07;;;72.63;;
67798;SDS011;54596;43.216;27.904;2023-10-13T05:40:29;105.82;;;76.90;;
67798;SDS011;54596;43.216;27.904;2023-10-13T05:43:13;106.10;;;80.95;;
67798;SDS011;54596;43.216;27.904;2023-10-13T05:46:01;106.90;;;80.78;;
67798;SDS011;54596;43.216;27.904;2023-10-13T05:48:47;93.97;;;69.32;;
67798;SDS011;54596;43.216;27.904;2023-10-13T05:51:28;87.85;;;61.88;;
67798;SDS011;54596;43.216;27.904;2023-10-13T05:54:09;85.70;;;63.53;;
67798;SDS011;54596;43.216;27.904;2023-10-13T05:56:47;90.47;;;65.85;;
67798;SDS011;54596;43.216;27.904;2023-10-13T05:59:34;81.32;;;58.30;;
67798;SDS011;54596;43.216;27.904;2023-10-13T06:02:20;69.30;;;51.05;;
67798;SDS011;54596;43.216;27.904;2023-10-13T06:05:05;70.20;;;47.58;;
67798;SDS011;54596;43.216;27.904;2023-10-13T06:07:50;67.90;;;45.40;;
67798;SDS011;54596;43.216;27.904;2023-10-13T06:10:34;60.05;;;39.03;;
67798;SDS011;54596;43.216;27.904;2023-10-13T06:13:19;45.78;;;32.75;;
67798;SDS011;54596;43.216;27.904;2023-10-13T06:16:05;51.03;;;31.65;;
67798;SDS011;54596;43.216;27.904;2023-10-13T06:18:53;43.30;;;28.73;;
67798;SDS011;54596;43.216;27.904;2023-10-13T06:21:37;44.50;;;27.52;;
67798;SDS011;54596;43.216;27.904;2023-10-13T06:24:21;38.92;;;25.17;;
67798;SDS011;54596;43.216;27.904;2023-10-13T06:27:05;44.53;;;23.65;;
67798;SDS011;54596;43.216;27.904;2023-10-13T06:29:49;43.40;;;23.25;;
67798;SDS011;54596;43.216;27.904;2023-10-13T06:32:14;44.65;;;24.63;;
67798;SDS011;54596;43.216;27.904;2023-10-13T06:34:41;41.42;;;23.75;;
67798;SDS011;54596;43.216;27.904;2023-10-13T06:37:13;39.40;;;22.83;;
67798;SDS011;54596;43.216;27.904;2023-10-13T06:39:55;44.95;;;23.50;;
67798;SDS011;54596;43.216;27.904;2023-10-13T06:42:31;39.92;;;24.35;;
67798;SDS011;54596;43.216;27.904;2023-10-13T06:44:59;39.83;;;23.77;;
67798;SDS011;54596;43.216;27.904;2023-10-13T06:47:33;34.15;;;22.08;;
67798;SDS011;54596;43.216;27.904;2023-10-13T06:50:20;39.72;;;21.15;;
67798;SDS011;54596;43.216;27.904;2023-10-13T06:52:49;38.53;;;19.58;;
67798;SDS011;54596;43.216;27.904;2023-10-13T06:55:19;31.80;;;17.20;;
67798;SDS011;54596;43.216;27.904;2023-10-13T06:58:00;28.58;;;15.75;;
67798;SDS011;54596;43.216;27.904;2023-10-13T07:00:29;28.45;;;14.27;;
67798;SDS011;54596;43.216;27.904;2023-10-13T07:02:59;31.95;;;14.27;;
67798;SDS011;54596;43.216;27.904;2023-10-13T07:05:38;29.25;;;13.00;;
67798;SDS011;54596;43.216;27.904;2023-10-13T07:08:07;29.23;;;14.80;;
67798;SDS011;54596;43.216;27.904;2023-10-13T07:10:34;23.02;;;12.60;;
67798;SDS011;54596;43.216;27.904;2023-10-13T07:13:13;25.50;;;12.38;;
67798;SDS011;54596;43.216;27.904;2023-10-13T07:15:42;29.42;;;13.90;;
67798;SDS011;54596;43.216;27.904;2023-10-13T07:18:11;28.98;;;12.98;;
67798;SDS011;54596;43.216;27.904;2023-10-13T07:20:39;25.38;;;13.60;;
67798;SDS011;54596;43.216;27.904;2023-10-13T07:23:09;26.33;;;14.27;;
67798;SDS011;54596;43.216;27.904;2023-10-13T07:25:55;24.92;;;13.98;;
67798;SDS011;54596;43.216;27.904;2023-10-13T07:28:28;25.55;;;12.82;;
67798;SDS011;54596;43.216;27.904;2023-10-13T07:30:56;23.23;;;11.07;;
67798;SDS011;54596;43.216;27.904;2023-10-13T07:33:25;20.05;;;10.50;;
67798;SDS011;54596;43.216;27.904;2023-10-13T07:36:06;22.17;;;9.88;;
67798;SDS011;54596;43.216;27.904;2023-10-13T07:38:53;22.80;;;10.00;;
67798;SDS011;54596;43.216;27.904;2023-10-13T07:41:44;20.33;;;9.55;;
67798;SDS011;54596;43.216;27.904;2023-10-13T07:44:12;21.05;;;9.43;;
67798;SDS011;54596;43.216;27.904;2023-10-13T07:46:38;18.67;;;9.00;;
67798;SDS011;54596;43.216;27.904;2023-10-13T07:49:04;20.58;;;7.43;;
67798;SDS011;54596;43.216;27.904;2023-10-13T07:51:40;19.90;;;7.38;;
67798;SDS011;54596;43.216;27.904;2023-10-13T07:54:14;19.63;;;7.82;;
67798;SDS011;54596;43.216;27.904;2023-10-13T07:56:47;17.73;;;7.05;;
67798;SDS011;54596;43.216;27.904;2023-10-13T07:59:12;14.55;;;6.53;;
67798;SDS011;54596;43.216;27.904;2023-10-13T08:01:40;18.80;;;7.18;;
67798;SDS011;54596;43.216;27.904;2023-10-13T08:04:10;16.20;;;7.60;;
67798;SDS011;54596;43.216;27.904;2023-10-13T08:06:36;23.13;;;10.57;;
67798;SDS011;54596;43.216;27.904;2023-10-13T08:09:05;19.08;;;8.73;;
67798;SDS011;54596;43.216;27.904;2023-10-13T08:11:54;20.48;;;10.02;;
67798;SDS011;54596;43.216;27.904;2023-10-13T08:14:20;24.40;;;9.68;;
67798;SDS011;54596;43.216;27.904;2023-10-13T08:16:54;34.90;;;10.15;;
67798;SDS011;54596;43.216;27.904;2023-10-13T08:19:25;27.17;;;7.97;;
67798;SDS011;54596;43.216;27.904;2023-10-13T08:22:10;18.77;;;7.90;;
67798;SDS011;54596;43.216;27.904;2023-10-13T08:24:48;23.05;;;8.15;;
67798;SDS011;54596;43.216;27.904;2023-10-13T08:27:17;23.65;;;8.70;;
67798;SDS011;54596;43.216;27.904;2023-10-13T08:29:58;18.08;;;6.70;;
67798;SDS011;54596;43.216;27.904;2023-10-13T08:32:24;16.90;;;7.03;;
67798;SDS011;54596;43.216;27.904;2023-10-13T08:35:02;19.20;;;7.95;;
67798;SDS011;54596;43.216;27.904;2023-10-13T08:37:29;18.05;;;7.15;;
67798;SDS011;54596;43.216;27.904;2023-10-13T08:39:58;18.55;;;6.90;;
67798;SDS011;54596;43.216;27.904;2023-10-13T08:42:31;17.98;;;7.13;;
67798;SDS011;54596;43.216;27.904;2023-10-13T08:45:07;19.80;;;7.70;;
67798;SDS011;54596;43.216;27.904;2023-10-13T08:47:49;21.10;;;8.40;;
67798;SDS011;54596;43.216;27.904;2023-10-13T08:50:22;20.23;;;7.60;;
67798;SDS011;54596;43.216;27.904;2023-10-13T08:53:08;16.77;;;8.48;;
67798;SDS011;54596;43.216;27.904;2023-10-13T08:55:52;22.15;;;8.77;;
67798;SDS011;54596;43.216;27.904;2023-10-13T08:58:30;25.92;;;8.40;;
67798;SDS011;54596;43.216;27.904;2023-10-13T09:01:15;16.95;;;7.68;;
67798;SDS011;54596;43.216;27.904;2023-10-13T09:04:00;21.63;;;8.43;;
67798;SDS011;54596;43.216;27.904;2023-10-13T09:06:48;21.60;;;8.45;;
67798;SDS011;54596;43.216;27.904;2023-10-13T09:14:51;22.38;;;7.90;;
67798;SDS011;54596;43.216;27.904;2023-10-13T09:17:29;24.50;;;6.60;;
67798;SDS011;54596;43.216;27.904;2023-10-13T09:19:58;12.63;;;4.72;;
67798;SDS011;54596;43.216;27.904;2023-10-13T09:22:25;19.50;;;5.65;;
67798;SDS011;54596;43.216;27.904;2023-10-13T09:25:01;14.20;;;5.70;;
67798;SDS011;54596;43.216;27.904;2023-10-13T09:27:31;11.85;;;4.90;;
67798;SDS011;54596;43.216;27.904;2023-10-13T09:30:02;12.25;;;5.22;;
67798;SDS011;54596;43.216;27.904;2023-10-13T09:32:43;14.93;;;5.32;;
67798;SDS011;54596;43.216;27.904;2023-10-13T09:35:20;13.90;;;5.18;;
67798;SDS011;54596;43.216;27.904;2023-10-13T09:37:52;11.43;;;5.00;;
67798;SDS011;54596;43.216;27.904;2023-10-13T09:40:21;15.20;;;4.93;;
67798;SDS011;54596;43.216;27.904;2023-10-13T09:42:52;15.52;;;5.18;;
67798;SDS011;54596;43.216;27.904;2023-10-13T09:45:28;11.25;;;5.00;;
67798;SDS011;54596;43.216;27.904;2023-10-13T09:48:01;14.95;;;4.95;;
67798;SDS011;54596;43.216;27.904;2023-10-13T09:50:35;11.93;;;4.93;;
67798;SDS011;54596;43.216;27.904;2023-10-13T09:53:03;10.83;;;4.63;;
67798;SDS011;54596;43.216;27.904;2023-10-13T09:55:35;13.68;;;4.30;;
67798;SDS011;54596;43.216;27.904;2023-10-13T09:58:07;12.90;;;4.40;;
67798;SDS011;54596;43.216;27.904;2023-10-13T10:00:43;9.38;;;4.00;;
67798;SDS011;54596;43.216;27.904;2023-10-13T10:03:21;10.70;;;3.88;;
67798;SDS011;54596;43.216;27.904;2023-10-13T10:06:04;11.32;;;3.50;;
67798;SDS011;54596;43.216;27.904;2023-10-13T10:08:41;9.23;;;4.00;;
67798;SDS011;54596;43.216;27.904;2023-10-13T10:16:57;10.38;;;3.00;;
67798;SDS011;54596;43.216;27.904;2023-10-13T10:19:26;11.90;;;3.50;;
67798;SDS011;54596;43.216;27.904;2023-10-13T10:22:04;10.18;;;3.20;;
67798;SDS011;54596;43.216;27.904;2023-10-13T10:24:42;11.35;;;3.45;;
67798;SDS011;54596;43.216;27.904;2023-10-13T10:27:08;9.02;;;3.20;;
67798;SDS011;54596;43.216;27.904;2023-10-13T10:30:00;10.73;;;3.60;;
67798;SDS011;54596;43.216;27.904;2023-10-13T10:32:53;10.52;;;3.30;;
67798;SDS011;54596;43.216;27.904;2023-10-13T10:35:24;11.95;;;3.15;;
67798;SDS011;54596;43.216;27.904;2023-10-13T10:37:56;13.10;;;3.58;;
67798;SDS011;54596;43.216;27.904;2023-10-13T10:40:36;8.20;;;3.17;;
67798;SDS011;54596;43.216;27.904;2023-10-13T10:43:38;9.93;;;3.22;;
67798;SDS011;54596;43.216;27.904;2023-10-13T10:46:26;10.63;;;2.80;;
67798;SDS011;54596;43.216;27.904;2023-10-13T10:48:55;11.68;;;3.88;;
67798;SDS011;54596;43.216;27.904;2023-10-13T10:51:27;10.73;;;3.45;;
67798;SDS011;54596;43.216;27.904;2023-10-13T10:53:56;11.07;;;3.35;;
67798;SDS011;54596;43.216;27.904;2023-10-13T10:56:26;11.43;;;3.25;;
67798;SDS011;54596;43.216;27.904;2023-10-13T10:59:02;12.38;;;3.20;;
67798;SDS011;54596;43.216;27.904;2023-10-13T11:01:30;8.07;;;3.15;;
67798;SDS011;54596;43.216;27.904;2023-10-13T11:04:04;9.57;;;2.92;;
67798;SDS011;54596;43.216;27.904;2023-10-13T11:06:36;10.75;;;3.10;;
67798;SDS011;54596;43.216;27.904;2023-10-13T11:09:07;8.15;;;3.03;;
67798;SDS011;54596;43.216;27.904;2023-10-13T11:11:55;10.05;;;3.53;;
67798;SDS011;54596;43.216;27.904;2023-10-13T11:14:28;11.00;;;2.78;;
67798;SDS011;54596;43.216;27.904;2023-10-13T11:16:55;9.27;;;2.90;;
67798;SDS011;54596;43.216;27.904;2023-10-13T11:19:44;7.95;;;2.78;;
67798;SDS011;54596;43.216;27.904;2023-10-13T11:22:13;9.88;;;2.90;;
67798;SDS011;54596;43.216;27.904;2023-10-13T11:25:04;8.52;;;3.10;;
67798;SDS011;54596;43.216;27.904;2023-10-13T11:27:40;10.52;;;3.15;;
67798;SDS011;54596;43.216;27.904;2023-10-13T11:30:19;9.23;;;2.78;;
67798;SDS011;54596;43.216;27.904;2023-10-13T11:33:01;8.43;;;3.00;;
67798;SDS011;54596;43.216;27.904;2023-10-13T11:35:31;8.93;;;2.95;;
67798;SDS011;54596;43.216;27.904;2023-10-13T11:38:15;10.10;;;3.80;;
67798;SDS011;54596;43.216;27.904;2023-10-13T11:40:50;9.70;;;2.90;;
67798;SDS011;54596;43.216;27.904;2023-10-13T11:43:26;11.85;;;3.00;;
67798;SDS011;54596;43.216;27.904;2023-10-13T11:45:51;12.25;;;3.22;;
67798;SDS011;54596;43.216;27.904;2023-10-13T11:48:44;13.18;;;3.13;;
67798;SDS011;54596;43.216;27.904;2023-10-13T11:51:12;10.02;;;3.17;;
67798;SDS011;54596;43.216;27.904;2023-10-13T11:53:57;9.38;;;3.30;;
67798;SDS011;54596;43.216;27.904;2023-10-13T11:56:23;11.23;;;4.18;;
67798;SDS011;54596;43.216;27.904;2023-10-13T11:58:49;10.75;;;2.92;;
67798;SDS011;54596;43.216;27.904;2023-10-13T12:01:15;8.77;;;2.60;;
67798;SDS011;54596;43.216;27.904;2023-10-13T12:03:47;10.30;;;3.08;;
67798;SDS011;54596;43.216;27.904;2023-10-13T12:06:33;8.63;;;2.80;;
67798;SDS011;54596;43.216;27.904;2023-10-13T12:09:08;10.57;;;2.65;;
67798;SDS011;54596;43.216;27.904;2023-10-13T12:11:41;9.25;;;3.08;;
67798;SDS011;54596;43.216;27.904;2023-10-13T12:14:13;11.50;;;3.08;;
67798;SDS011;54596;43.216;27.904;2023-10-13T12:16:45;8.02;;;2.90;;
67798;SDS011;54596;43.216;27.904;2023-10-13T12:21:48;7.65;;;3.00;;
67798;SDS011;54596;43.216;27.904;2023-10-13T12:24:14;10.10;;;2.83;;
67798;SDS011;54596;43.216;27.904;2023-10-13T12:26:59;8.70;;;2.50;;
67798;SDS011;54596;43.216;27.904;2023-10-13T12:29:24;11.77;;;2.95;;
67798;SDS011;54596;43.216;27.904;2023-10-13T12:31:56;12.90;;;2.60;;
67798;SDS011;54596;43.216;27.904;2023-10-13T12:34:37;6.97;;;2.55;;
67798;SDS011;54596;43.216;27.904;2023-10-13T12:37:21;10.50;;;2.90;;
67798;SDS011;54596;43.216;27.904;2023-10-13T12:40:19;8.93;;;2.60;;
67798;SDS011;54596;43.216;27.904;2023-10-13T12:43:06;7.88;;;2.47;;
67798;SDS011;54596;43.216;27.904;2023-10-13T12:45:51;10.98;;;2.85;;
67798;SDS011;54596;43.216;27.904;2023-10-13T12:48:36;10.20;;;2.65;;
67798;SDS011;54596;43.216;27.904;2023-10-13T12:51:23;10.10;;;2.60;;
67798;SDS011;54596;43.216;27.904;2023-10-13T12:53:58;8.90;;;2.97;;
67798;SDS011;54596;43.216;27.904;2023-10-13T12:56:49;11.13;;;2.80;;
67798;SDS011;54596;43.216;27.904;2023-10-13T12:59:21;10.73;;;4.20;;
67798;SDS011;54596;43.216;27.904;2023-10-13T13:01:51;8.45;;;3.00;;
67798;SDS011;54596;43.216;27.904;2023-10-13T13:04:18;9.68;;;2.97;;
67798;SDS011;54596;43.216;27.904;2023-10-13T13:06:45;11.70;;;2.80;;
67798;SDS011;54596;43.216;27.904;2023-10-13T13:09:14;8.35;;;2.67;;
67798;SDS011;54596;43.216;27.904;2023-10-13T13:11:40;9.00;;;2.78;;
67798;SDS011;54596;43.216;27.904;2023-10-13T13:14:06;9.65;;;2.90;;
67798;SDS011;54596;43.216;27.904;2023-10-13T13:16:35;9.68;;;2.80;;
67798;SDS011;54596;43.216;27.904;2023-10-13T13:19:03;7.88;;;3.22;;
67798;SDS011;54596;43.216;27.904;2023-10-13T13:21:38;9.65;;;2.90;;
67798;SDS011;54596;43.216;27.904;2023-10-13T13:24:04;9.43;;;2.72;;
67798;SDS011;54596;43.216;27.904;2023-10-13T13:26:35;8.18;;;2.88;;
67798;SDS011;54596;43.216;27.904;2023-10-13T13:29:05;8.90;;;3.33;;
67798;SDS011;54596;43.216;27.904;2023-10-13T13:31:34;9.38;;;3.00;;
67798;SDS011;54596;43.216;27.904;2023-10-13T13:34:06;9.60;;;3.00;;
67798;SDS011;54596;43.216;27.904;2023-10-13T13:36:35;13.45;;;3.25;;
67798;SDS011;54596;43.216;27.904;2023-10-13T13:39:00;9.13;;;2.95;;
67798;SDS011;54596;43.216;27.904;2023-10-13T13:41:27;11.55;;;3.22;;
67798;SDS011;54596;43.216;27.904;2023-10-13T13:43:52;12.63;;;3.30;;
67798;SDS011;54596;43.216;27.904;2023-10-13T13:46:25;9.15;;;2.88;;
67798;SDS011;54596;43.216;27.904;2023-10-13T13:48:52;7.47;;;2.70;;
67798;SDS011;54596;43.216;27.904;2023-10-13T13:51:29;9.48;;;2.95;;
67798;SDS011;54596;43.216;27.904;2023-10-13T13:53:57;10.43;;;2.83;;
67798;SDS011;54596;43.216;27.904;2023-10-13T13:56:23;8.70;;;2.92;;
67798;SDS011;54596;43.216;27.904;2023-10-13T13:58:53;11.15;;;2.90;;
67798;SDS011;54596;43.216;27.904;2023-10-13T14:01:21;11.55;;;3.10;;
67798;SDS011;54596;43.216;27.904;2023-10-13T14:03:49;11.13;;;3.05;;
67798;SDS011;54596;43.216;27.904;2023-10-13T14:06:21;8.45;;;2.80;;
67798;SDS011;54596;43.216;27.904;2023-10-13T14:08:50;10.50;;;3.13;;
67798;SDS011;54596;43.216;27.904;2023-10-13T14:11:19;11.20;;;3.60;;
67798;SDS011;54596;43.216;27.904;2023-10-13T14:13:46;9.27;;;2.90;;
67798;SDS011;54596;43.216;27.904;2023-10-13T14:16:17;8.27;;;2.65;;
67798;SDS011;54596;43.216;27.904;2023-10-13T14:18:44;10.50;;;2.97;;
67798;SDS011;54596;43.216;27.904;2023-10-13T14:21:11;10.23;;;2.80;;
67798;SDS011;54596;43.216;27.904;2023-10-13T14:23:44;8.70;;;2.72;;
67798;SDS011;54596;43.216;27.904;2023-10-13T14:26:14;12.23;;;2.90;;
67798;SDS011;54596;43.216;27.904;2023-10-13T14:28:45;11.05;;;2.72;;
67798;SDS011;54596;43.216;27.904;2023-10-13T14:31:29;11.27;;;3.08;;
67798;SDS011;54596;43.216;27.904;2023-10-13T14:33:56;11.27;;;3.22;;
67798;SDS011;54596;43.216;27.904;2023-10-13T14:36:22;12.38;;;3.13;;
67798;SDS011;54596;43.216;27.904;2023-10-13T14:38:48;11.30;;;2.92;;
67798;SDS011;54596;43.216;27.904;2023-10-13T14:41:17;14.23;;;3.30;;
67798;SDS011;54596;43.216;27.904;2023-10-13T14:43:43;10.93;;;3.20;;
67798;SDS011;54596;43.216;27.904;2023-10-13T14:46:15;13.23;;;4.45;;
67798;SDS011;54596;43.216;27.904;2023-10-13T14:48:53;11.55;;;3.72;;
67798;SDS011;54596;43.216;27.904;2023-10-13T14:51:19;9.20;;;3.30;;
67798;SDS011;54596;43.216;27.904;2023-10-13T14:53:54;9.82;;;3.88;;
67798;SDS011;54596;43.216;27.904;2023-10-13T14:56:21;13.55;;;3.63;;
67798;SDS011;54596;43.216;27.904;2023-10-13T14:58:50;12.10;;;3.83;;
67798;SDS011;54596;43.216;27.904;2023-10-13T15:01:17;11.15;;;3.97;;
67798;SDS011;54596;43.216;27.904;2023-10-13T15:03:45;12.57;;;3.65;;
67798;SDS011;54596;43.216;27.904;2023-10-13T15:06:17;19.08;;;10.85;;
67798;SDS011;54596;43.216;27.904;2023-10-13T15:08:45;14.73;;;5.65;;
67798;SDS011;54596;43.216;27.904;2023-10-13T15:11:12;11.93;;;4.40;;
67798;SDS011;54596;43.216;27.904;2023-10-13T15:13:41;13.75;;;5.72;;
67798;SDS011;54596;43.216;27.904;2023-10-13T15:16:20;11.82;;;4.53;;
67798;SDS011;54596;43.216;27.904;2023-10-13T15:18:48;11.15;;;4.72;;
67798;SDS011;54596;43.216;27.904;2023-10-13T15:21:20;14.55;;;4.63;;
67798;SDS011;54596;43.216;27.904;2023-10-13T15:23:55;17.27;;;6.45;;
67798;SDS011;54596;43.216;27.904;2023-10-13T15:26:28;13.32;;;4.10;;
67798;SDS011;54596;43.216;27.904;2023-10-13T15:28:54;14.60;;;5.88;;
67798;SDS011;54596;43.216;27.904;2023-10-13T15:31:22;13.00;;;4.65;;